Time;durP1;ratioP1;P1;durP2;ratioP2;P2;SDS_P1;SDS_P2;PMS_P1;PMS_P2;Temp;Humidity;BMP_temperature;BMP_pressure;BME280_temperature;BME280_humidity;BME280_pressure;Samples;Min_cycle;Max_cycle;Signal;HPM_P1;HPM_P2
2022/03/09 00:01:48;;;;;;;19.50;10.70;;;;;;;1.23;72.13;99002.33;105820;1280;138516;-76
2022/03/09 00:04:15;;;;;;;21.60;11.00;;;;;;;1.25;72.19;98999.13;105985;1280;25239;-77
2022/03/09 00:06:41;;;;;;;20.70;11.00;;;;;;;1.29;72.24;98998.66;105695;1280;137736;-76
2022/03/09 00:09:10;;;;;;;20.90;10.70;;;;;;;1.35;72.30;99004.16;105998;1280;22696;-76
2022/03/09 00:11:36;;;;;;;23.10;11.10;;;;;;;1.41;72.39;99012.63;105909;1280;22675;-76
2022/03/09 00:14:03;;;;;;;20.20;10.50;;;;;;;1.44;72.09;99011.02;105798;1280;137317;-76
2022/03/09 00:16:29;;;;;;;19.00;10.40;;;;;;;1.46;72.13;99009.73;106100;1280;22572;-77
2022/03/09 00:18:55;;;;;;;19.20;10.30;;;;;;;1.47;72.23;99011.77;105721;1281;137741;-76
2022/03/09 00:21:22;;;;;;;20.30;9.50;;;;;;;1.47;72.17;99012.82;105874;1280;25316;-76
2022/03/09 00:23:48;;;;;;;19.60;10.40;;;;;;;1.47;72.02;99012.84;105846;1280;137461;-76
2022/03/09 00:26:15;;;;;;;23.70;13.60;;;;;;;1.45;71.86;99017.70;105976;1280;23243;-77
2022/03/09 00:28:41;;;;;;;38.90;19.30;;;;;;;1.43;71.80;99011.49;105922;1280;22544;-77
2022/03/09 00:31:11;;;;;;;46.50;21.40;;;;;;;1.39;71.77;99014.96;106059;1280;137604;-77
2022/03/09 00:33:40;;;;;;;48.70;22.50;;;;;;;1.34;71.50;99008.77;105944;1280;25387;-77
2022/03/09 00:36:07;;;;;;;52.70;25.10;;;;;;;1.28;71.75;99010.05;105780;1280;137758;-77
2022/03/09 00:38:33;;;;;;;53.50;25.50;;;;;;;1.25;71.61;99014.33;105945;1280;22714;-77
2022/03/09 00:41:02;;;;;;;46.40;24.60;;;;;;;1.22;71.59;99010.92;106056;1280;22569;-77
2022/03/09 00:43:28;;;;;;;54.00;26.20;;;;;;;1.21;71.70;99010.04;105894;1280;138578;-77
2022/03/09 00:45:55;;;;;;;55.30;26.40;;;;;;;1.20;71.72;99006.92;106017;1280;25394;-77
2022/03/09 00:48:36;;;;;;;59.40;27.50;;;;;;;1.19;71.69;99002.39;105638;1281;137741;-76
2022/03/09 00:51:02;;;;;;;57.80;27.30;;;;;;;1.20;71.74;98996.23;105797;1280;23977;-78
2022/03/09 00:53:32;;;;;;;55.80;27.20;;;;;;;1.20;71.62;98993.30;105832;1280;25474;-76
2022/03/09 00:55:58;;;;;;;59.70;28.00;;;;;;;1.18;71.66;98990.87;105997;1280;137312;-76
2022/03/09 00:58:24;;;;;;;63.60;29.10;;;;;;;1.16;71.90;98987.85;106073;1280;23766;-76
2022/03/09 01:00:50;;;;;;;66.60;29.40;;;;;;;1.15;71.86;98987.83;105739;1280;137714;-76
2022/03/09 01:03:21;;;;;;;65.40;29.90;;;;;;;1.11;71.88;98986.06;106016;1280;22681;-76
2022/03/09 01:05:50;;;;;;;67.50;29.50;;;;;;;1.08;71.87;98989.61;106058;1280;138339;-76
2022/03/09 01:08:16;;;;;;;60.60;30.70;;;;;;;1.05;71.95;98990.16;105929;1280;24338;-76
2022/03/09 01:10:43;;;;;;;71.70;34.60;;;;;;;1.02;71.87;98989.04;106179;1280;23089;-76
2022/03/09 01:13:09;;;;;;;65.90;31.80;;;;;;;1.01;71.82;98991.69;105718;1280;138047;-77
2022/03/09 01:15:35;;;;;;;61.30;31.40;;;;;;;1.02;71.87;98987.39;105871;1280;22600;-77
2022/03/09 01:18:02;;;;;;;71.60;33.00;;;;;;;1.04;71.74;98987.23;105731;1280;138270;-76
2022/03/09 01:20:28;;;;;;;66.50;32.40;;;;;;;1.03;71.90;98981.30;105813;1280;24284;-76
2022/03/09 01:22:54;;;;;;;69.80;33.30;;;;;;;1.02;71.83;98984.90;105999;1280;22595;-76
2022/03/09 01:25:20;;;;;;;64.70;32.60;;;;;;;1.02;71.98;98984.60;105897;1280;137509;-76
2022/03/09 01:27:47;;;;;;;73.30;35.00;;;;;;;1.01;72.16;98979.52;105978;1280;25329;-76
2022/03/09 01:30:13;;;;;;;69.20;36.40;;;;;;;1.00;71.97;98980.02;105746;1280;137676;-76
2022/03/09 01:32:55;;;;;;;75.30;35.40;;;;;;;0.99;71.90;98977.09;105803;1281;25420;-76
2022/03/09 01:35:21;;;;;;;65.90;35.10;;;;;;;0.96;72.18;98980.42;105511;1281;24004;-78
2022/03/09 01:37:48;;;;;;;76.30;37.10;;;;;;;0.95;72.15;98981.10;105916;1280;137642;-79
2022/03/09 01:40:15;;;;;;;77.00;36.50;;;;;;;0.94;72.38;98978.48;105569;1280;22566;-78
2022/03/09 01:42:42;;;;;;;73.10;36.90;;;;;;;0.94;72.27;98973.63;105809;1280;138943;-78
2022/03/09 01:45:12;;;;;;;71.60;34.30;;;;;;;0.96;72.46;98972.00;106149;1280;25332;-77
2022/03/09 01:47:38;;;;;;;73.40;36.00;;;;;;;1.00;72.59;98967.81;106083;1280;24552;-77
2022/03/09 01:50:08;;;;;;;75.20;37.20;;;;;;;1.02;72.50;98967.41;105701;1280;137388;-77
2022/03/09 01:52:36;;;;;;;74.30;36.10;;;;;;;1.05;72.50;98967.10;105983;1280;24397;-76
2022/03/09 01:55:04;;;;;;;84.20;38.40;;;;;;;1.04;72.40;98967.70;105813;1280;138322;-76
2022/03/09 01:57:31;;;;;;;80.20;38.60;;;;;;;1.03;72.27;98966.36;105914;1280;22563;-78
2022/03/09 02:00:00;;;;;;;76.90;37.20;;;;;;;1.02;72.43;98958.85;106004;1279;138179;-76
2022/03/09 02:02:27;;;;;;;80.50;37.60;;;;;;;1.01;72.44;98956.31;105962;1280;25346;-76
2022/03/09 02:04:54;;;;;;;77.70;38.80;;;;;;;0.99;72.44;98951.69;106160;1280;22709;-77
2022/03/09 02:09:41;;;;;;;83.70;38.10;;;;;;;0.96;72.26;98955.34;105967;1280;137445;-77
2022/03/09 02:10:10;;;;;;;83.80;40.30;;;;;;;0.94;72.39;98951.14;106025;1280;22596;-77
2022/03/09 02:12:37;;;;;;;83.90;37.50;;;;;;;0.93;72.36;98951.27;106122;1280;138424;-77
2022/03/09 02:15:04;;;;;;;77.80;37.80;;;;;;;0.91;72.48;98947.02;105859;1280;24246;-77
2022/03/09 02:17:31;;;;;;;84.40;39.00;;;;;;;0.90;72.57;98940.69;105980;1279;32044;-77
2022/03/09 02:19:58;;;;;;;74.70;37.10;;;;;;;0.89;72.68;98942.27;105812;1279;137451;-77
2022/03/09 02:22:44;;;;;;;82.50;38.50;;;;;;;0.86;72.50;98942.94;105752;1279;25270;-76
2022/03/09 02:25:13;;;;;;;80.80;39.30;;;;;;;0.84;72.81;98944.35;105750;1279;137934;-76
2022/03/09 02:27:41;;;;;;;87.30;38.60;;;;;;;0.82;72.94;98942.67;105879;1280;22983;-77
2022/03/09 02:30:10;;;;;;;85.70;42.00;;;;;;;0.80;72.97;98945.72;105922;1280;137852;-77
2022/03/09 02:32:49;;;;;;;84.00;40.80;;;;;;;0.77;72.92;98941.40;105932;1280;24910;-77
2022/03/09 02:35:17;;;;;;;80.00;36.70;;;;;;;0.76;73.00;98937.88;105918;1280;24243;-77
2022/03/09 02:37:45;;;;;;;77.80;38.60;;;;;;;0.77;73.21;98936.83;106277;1280;137698;-77
2022/03/09 02:40:14;;;;;;;86.80;41.00;;;;;;;0.78;73.47;98936.85;105957;1280;22700;-77
2022/03/09 02:42:41;;;;;;;85.20;42.20;;;;;;;0.78;73.34;98937.92;105993;1280;138395;-77
2022/03/09 02:45:09;;;;;;;84.30;39.30;;;;;;;0.77;73.22;98937.83;106086;1280;22610;-77
2022/03/09 02:47:38;;;;;;;90.60;41.50;;;;;;;0.76;73.30;98932.02;105983;1280;22586;-77
2022/03/09 02:50:05;;;;;;;94.40;43.00;;;;;;;0.74;73.42;98937.39;105725;1280;137437;-77
2022/03/09 02:52:46;;;;;;;91.10;43.10;;;;;;;0.73;73.42;98942.35;105837;1280;25413;-77
2022/03/09 02:55:13;;;;;;;89.10;41.40;;;;;;;0.72;73.20;98950.09;105878;1280;138425;-77
2022/03/09 02:57:41;;;;;;;84.80;40.40;;;;;;;0.74;73.41;98953.51;105978;1280;22585;-77
2022/03/09 03:00:09;;;;;;;91.10;43.10;;;;;;;0.76;73.49;98951.20;105772;1280;137869;-77
2022/03/09 03:02:38;;;;;;;89.70;42.10;;;;;;;0.77;73.54;98950.14;106124;1279;22731;-77
2022/03/09 03:05:06;;;;;;;90.70;42.50;;;;;;;0.79;73.52;98954.44;106117;1280;25456;-77
2022/03/09 03:07:33;;;;;;;83.50;42.20;;;;;;;0.79;73.68;98955.69;105804;1279;138005;-77
2022/03/09 03:10:00;;;;;;;90.90;44.60;;;;;;;0.78;73.69;98953.98;105948;1280;25357;-77
2022/03/09 03:12:26;;;;;;;97.50;43.70;;;;;;;0.76;73.71;98954.91;105773;1280;137702;-76
2022/03/09 03:14:52;;;;;;;89.50;45.20;;;;;;;0.73;73.51;98955.59;105907;1280;25246;-76
2022/03/09 03:17:18;;;;;;;88.70;43.40;;;;;;;0.71;73.43;98959.17;106213;1280;22579;-76
2022/03/09 03:19:44;;;;;;;90.30;40.60;;;;;;;0.69;73.55;98961.02;105839;1280;137999;-76
2022/03/09 03:22:11;;;;;;;86.50;40.30;;;;;;;0.68;73.51;98962.60;105989;1279;22576;-76
2022/03/09 03:24:37;;;;;;;85.40;42.00;;;;;;;0.66;73.79;98958.64;105786;1280;137653;-77
2022/03/09 03:27:03;;;;;;;84.10;38.00;;;;;;;0.66;73.85;98963.01;105855;1280;25384;-76
2022/03/09 03:29:30;;;;;;;81.70;40.40;;;;;;;0.63;73.74;98958.47;106006;1280;22553;-76
2022/03/09 03:31:56;;;;;;;98.00;42.30;;;;;;;0.60;73.80;98960.42;105937;1280;137677;-76
2022/03/09 03:34:22;;;;;;;96.30;43.10;;;;;;;0.57;73.88;98964.28;106013;1280;25354;-76
2022/03/09 03:36:48;;;;;;;92.20;41.40;;;;;;;0.54;73.76;98960.12;105664;1280;138021;-77
2022/03/09 03:39:15;;;;;;;79.60;37.70;;;;;;;0.55;73.97;98958.25;106015;1280;22543;-77
2022/03/09 03:41:41;;;;;;;83.90;38.50;;;;;;;0.56;74.06;98959.98;105889;1280;23075;-76
2022/03/09 03:44:07;;;;;;;87.20;38.90;;;;;;;0.57;74.04;98966.12;105844;1279;137441;-76
2022/03/09 03:46:34;;;;;;;81.20;37.10;;;;;;;0.59;74.46;98968.98;106029;1280;22648;-76
2022/03/09 03:49:00;;;;;;;79.50;37.20;;;;;;;0.60;74.30;98973.82;105904;1280;138471;-76
2022/03/09 03:51:27;;;;;;;79.60;37.00;;;;;;;0.60;74.51;98971.48;105743;1280;22578;-76
2022/03/09 03:53:53;;;;;;;86.70;38.20;;;;;;;0.61;74.44;98967.87;105799;1280;138099;-76
2022/03/09 03:56:19;;;;;;;87.70;39.10;;;;;;;0.59;74.27;98969.34;105830;1280;22691;-76
2022/03/09 03:58:45;;;;;;;82.10;37.80;;;;;;;0.55;74.56;98966.31;105806;1280;22720;-76
2022/03/09 04:01:11;;;;;;;76.80;37.50;;;;;;;0.53;74.19;98964.89;105660;1280;138102;-76
2022/03/09 04:03:38;;;;;;;83.90;37.90;;;;;;;0.51;74.29;98965.83;105795;1280;25276;-76
2022/03/09 04:06:04;;;;;;;87.20;39.00;;;;;;;0.50;74.40;98965.05;105667;1280;137675;-76
2022/03/09 04:08:30;;;;;;;82.50;38.40;;;;;;;0.49;74.56;98965.05;105771;1280;22672;-76
2022/03/09 04:10:57;;;;;;;84.20;38.90;;;;;;;0.47;74.66;98967.43;105699;1280;25337;-76
2022/03/09 04:13:23;;;;;;;82.60;40.60;;;;;;;0.45;74.61;98966.05;105735;1280;137636;-76
2022/03/09 04:15:49;;;;;;;91.90;41.20;;;;;;;0.42;74.56;98964.41;105741;1280;22570;-76
2022/03/09 04:18:16;;;;;;;89.10;40.00;;;;;;;0.40;74.70;98965.08;105710;1280;138446;-76
2022/03/09 04:20:43;;;;;;;83.60;38.80;;;;;;;0.42;74.78;98968.30;105845;1280;25276;-77
2022/03/09 04:23:10;;;;;;;80.50;37.90;;;;;;;0.44;74.83;98969.14;105723;1280;22687;-77
2022/03/09 04:25:51;;;;;;;83.60;39.70;;;;;;;0.46;74.97;98966.77;105860;1280;137605;-77
2022/03/09 04:28:17;;;;;;;77.00;37.70;;;;;;;0.49;75.03;98968.80;106097;1280;22577;-76
2022/03/09 04:30:44;;;;;;;91.40;42.10;;;;;;;0.50;74.99;98963.65;105637;1280;137980;-76
2022/03/09 04:33:10;;;;;;;80.10;38.00;;;;;;;0.52;74.88;98968.27;105731;1280;24308;-76
2022/03/09 04:35:37;;;;;;;88.30;39.70;;;;;;;0.52;74.72;98965.05;105934;1280;22583;-76
2022/03/09 04:38:03;;;;;;;86.00;42.10;;;;;;;0.51;74.93;98963.04;105722;1280;137593;-77
2022/03/09 04:40:30;;;;;;;98.10;41.00;;;;;;;0.50;74.90;98963.11;105803;1280;23238;-75
2022/03/09 04:42:56;;;;;;;84.70;39.60;;;;;;;0.51;74.98;98960.37;105781;1280;138474;-78
2022/03/09 04:45:23;;;;;;;90.90;41.10;;;;;;;0.53;75.08;98958.69;105814;1280;22589;-76
2022/03/09 04:47:49;;;;;;;84.20;39.70;;;;;;;0.54;75.20;98960.33;105976;1280;137784;-75
2022/03/09 04:50:18;;;;;;;88.00;41.20;;;;;;;0.55;75.36;98964.71;105799;1279;22591;-75
2022/03/09 04:52:45;;;;;;;88.60;43.50;;;;;;;0.55;75.25;98964.52;105751;1280;24440;-76
2022/03/09 04:55:11;;;;;;;92.60;44.10;;;;;;;0.54;75.52;98963.15;105782;1280;137912;-76
2022/03/09 04:57:38;;;;;;;96.70;46.40;;;;;;;0.53;75.21;98961.13;105927;1280;22594;-76
2022/03/09 05:00:08;;;;;;;98.60;46.00;;;;;;;0.51;75.55;98961.17;105737;1280;138441;-76
2022/03/09 05:02:35;;;;;;;91.30;43.00;;;;;;;0.49;75.39;98961.23;105765;1280;22560;-76
2022/03/09 05:05:01;;;;;;;91.10;42.80;;;;;;;0.47;75.51;98959.70;105894;1280;23239;-76
2022/03/09 05:07:28;;;;;;;88.60;42.70;;;;;;;0.45;75.79;98964.35;105826;1279;137684;-76
2022/03/09 05:09:54;;;;;;;103.70;46.20;;;;;;;0.43;75.66;98964.95;105955;1280;25560;-76
2022/03/09 05:12:20;;;;;;;94.40;43.90;;;;;;;0.41;75.58;98966.22;105784;1280;137795;-76
2022/03/09 05:14:47;;;;;;;101.90;46.10;;;;;;;0.37;75.70;98965.72;105981;1280;22544;-76
2022/03/09 05:17:13;;;;;;;90.40;42.10;;;;;;;0.36;75.69;98966.55;105835;1280;24906;-76
2022/03/09 05:19:39;;;;;;;91.50;41.20;;;;;;;0.36;75.60;98971.05;105860;1280;138530;-76
2022/03/09 05:22:06;;;;;;;91.20;41.50;;;;;;;0.38;75.94;98970.34;105872;1280;23722;-78
2022/03/09 05:24:32;;;;;;;88.00;41.20;;;;;;;0.41;75.93;98966.59;105781;1280;138055;-76
2022/03/09 05:26:58;;;;;;;90.40;42.90;;;;;;;0.44;76.03;98965.01;106013;1280;25384;-76
2022/03/09 05:29:25;;;;;;;86.00;40.00;;;;;;;0.47;75.96;98969.58;106011;1280;22566;-76
2022/03/09 05:31:51;;;;;;;86.60;41.50;;;;;;;0.48;75.69;98972.33;105818;1280;137499;-75
2022/03/09 05:34:18;;;;;;;86.50;39.70;;;;;;;0.48;75.82;98972.79;105880;1280;22561;-76
2022/03/09 05:36:44;;;;;;;91.30;42.00;;;;;;;0.49;75.83;98975.73;105980;1280;137955;-76
2022/03/09 05:39:11;;;;;;;89.60;41.90;;;;;;;0.49;75.96;98978.92;106221;1280;22586;-76
2022/03/09 05:41:37;;;;;;;82.30;38.60;;;;;;;0.51;75.73;98980.83;105909;1280;25261;-76
2022/03/09 05:44:04;;;;;;;84.50;39.70;;;;;;;0.52;75.86;98987.50;105724;1280;137618;-77
2022/03/09 05:46:30;;;;;;;85.50;40.10;;;;;;;0.55;75.83;98994.57;105950;1280;25317;-77
2022/03/09 05:48:57;;;;;;;85.60;40.30;;;;;;;0.55;75.86;99000.99;105815;1280;137943;-76
2022/03/09 05:51:23;;;;;;;98.60;41.40;;;;;;;0.55;75.82;99002.81;105883;1280;23141;-76
2022/03/09 05:53:49;;;;;;;86.40;40.00;;;;;;;0.53;75.74;99005.26;105668;1280;137756;-76
2022/03/09 05:56:16;;;;;;;104.60;45.10;;;;;;;0.51;75.56;99007.30;105922;1280;22596;-76
2022/03/09 05:58:42;;;;;;;99.00;44.50;;;;;;;0.49;75.62;99006.77;105737;1280;22787;-76
2022/03/09 06:01:08;;;;;;;87.20;41.90;;;;;;;0.49;75.96;99006.98;105874;1280;138892;-76
2022/03/09 06:03:34;;;;;;;99.60;45.60;;;;;;;0.50;75.79;99007.19;105922;1280;25663;-77
2022/03/09 06:06:01;;;;;;;102.90;49.40;;;;;;;0.52;76.10;99006.62;105985;1280;137593;-76
2022/03/09 06:08:27;;;;;;;99.50;49.10;;;;;;;0.54;76.08;99003.38;105901;1280;23016;-76
2022/03/09 06:10:53;;;;;;;114.10;49.80;;;;;;;0.54;76.12;99005.33;105670;1280;23271;-76
2022/03/09 06:13:20;;;;;;;120.30;55.40;;;;;;;0.55;76.28;99007.92;105661;1280;138252;-76
2022/03/09 06:15:46;;;;;;;115.20;52.40;;;;;;;0.56;76.47;99008.02;105751;1280;22856;-76
2022/03/09 06:18:13;;;;;;;111.30;51.10;;;;;;;0.56;76.25;99009.07;105621;1280;141353;-76
2022/03/09 06:20:39;;;;;;;116.70;53.00;;;;;;;0.59;76.37;99010.04;105855;1280;22560;-76
2022/03/09 06:23:06;;;;;;;108.80;50.10;;;;;;;0.61;76.36;99011.82;105880;1280;24303;-76
2022/03/09 06:25:34;;;;;;;112.30;51.30;;;;;;;0.66;76.83;99006.39;105842;1279;138215;-77
2022/03/09 06:28:01;;;;;;;114.70;52.60;;;;;;;0.80;76.59;99012.08;105797;1280;25975;-76
2022/03/09 06:30:27;;;;;;;128.90;58.60;;;;;;;0.86;76.12;99012.62;105782;1280;137899;-77
2022/03/09 06:32:54;;;;;;;128.00;56.00;;;;;;;0.87;75.90;99010.94;106000;1280;22570;-77
2022/03/09 06:35:20;;;;;;;134.80;57.10;;;;;;;0.88;75.72;99011.70;105932;1280;23253;-77
2022/03/09 06:37:47;;;;;;;122.00;57.10;;;;;;;0.89;75.82;99013.01;106107;1280;137771;-77
2022/03/09 06:40:16;;;;;;;126.20;55.80;;;;;;;0.89;75.72;99019.61;105898;1280;22579;-77
2022/03/09 06:42:43;;;;;;;124.90;57.00;;;;;;;0.90;75.67;99017.74;105852;1280;137859;-77
2022/03/09 06:45:09;;;;;;;140.00;58.60;;;;;;;0.90;75.80;99019.67;105898;1280;25277;-77
2022/03/09 06:47:38;;;;;;;138.40;64.70;;;;;;;0.90;75.85;99020.63;106022;1280;25282;-77
2022/03/09 06:50:07;;;;;;;137.80;61.70;;;;;;;0.89;75.91;99017.63;105792;1280;138796;-77
2022/03/09 06:52:35;;;;;;;137.80;58.10;;;;;;;0.91;75.78;99022.92;105839;1280;23715;-77
2022/03/09 06:55:03;;;;;;;135.00;59.70;;;;;;;0.91;75.73;99021.32;106002;1280;137678;-77
2022/03/09 06:57:31;;;;;;;135.40;60.60;;;;;;;0.91;75.77;99023.16;105867;1280;25281;-77
2022/03/09 06:59:59;;;;;;;131.90;59.50;;;;;;;0.90;75.98;99021.09;105571;1280;138259;-77
2022/03/09 07:02:42;;;;;;;143.20;62.20;;;;;;;0.87;75.85;99019.49;105805;1280;24217;-77
2022/03/09 07:05:10;;;;;;;134.90;61.60;;;;;;;0.85;76.17;99022.20;106235;1279;25277;-77
2022/03/09 07:07:38;;;;;;;133.90;60.30;;;;;;;0.85;76.01;99020.79;105924;1280;138491;-77
2022/03/09 07:10:10;;;;;;;136.70;59.60;;;;;;;0.85;76.16;99025.61;105914;1280;25424;-77
2022/03/09 07:12:38;;;;;;;134.90;61.10;;;;;;;0.87;76.08;99028.56;105933;1280;138723;-77
2022/03/09 07:15:04;;;;;;;141.90;61.20;;;;;;;0.88;76.07;99026.02;105917;1279;23048;-77
2022/03/09 07:17:31;;;;;;;127.90;59.80;;;;;;;0.88;76.20;99029.73;106047;1280;22598;-77
2022/03/09 07:19:57;;;;;;;140.10;64.40;;;;;;;0.86;76.16;99026.92;105782;1280;138091;-77
2022/03/09 07:22:23;;;;;;;143.20;64.80;;;;;;;0.86;76.26;99028.36;106279;1280;23322;-77
2022/03/09 07:24:50;;;;;;;138.40;62.60;;;;;;;0.86;76.50;99026.92;105858;1279;139258;-77
2022/03/09 07:27:16;;;;;;;140.40;61.20;;;;;;;0.88;76.59;99023.98;106196;1280;22540;-77
2022/03/09 07:29:43;;;;;;;132.40;61.90;;;;;;;0.92;76.49;99021.26;105973;1280;22725;-75
2022/03/09 07:32:11;;;;;;;137.10;61.70;;;;;;;0.95;76.23;99018.77;106019;1280;137649;-76
2022/03/09 07:34:37;;;;;;;130.10;60.30;;;;;;;0.96;76.24;99021.84;106023;1280;22590;-76
2022/03/09 07:37:03;;;;;;;143.90;61.90;;;;;;;0.97;76.10;99023.09;106034;1279;138106;-76
2022/03/09 07:39:30;;;;;;;140.00;63.00;;;;;;;0.96;76.13;99023.85;105763;1280;24269;-76
2022/03/09 07:41:57;;;;;;;140.80;65.70;;;;;;;0.95;76.26;99024.84;105944;1280;138106;-76
2022/03/09 07:44:25;;;;;;;137.30;62.40;;;;;;;0.97;76.30;99024.80;105975;1280;25424;-76
2022/03/09 07:46:52;;;;;;;131.30;60.20;;;;;;;1.01;76.28;99022.79;105898;1280;24094;-76
2022/03/09 07:49:19;;;;;;;119.70;60.30;;;;;;;1.06;76.32;99024.43;105800;1280;139046;-76
2022/03/09 07:51:46;;;;;;;136.00;60.50;;;;;;;1.07;76.06;99022.11;105794;1280;24215;-77
2022/03/09 07:54:13;;;;;;;133.70;61.00;;;;;;;1.09;76.01;99017.55;105803;1280;138146;-77
2022/03/09 07:56:39;;;;;;;131.60;61.30;;;;;;;1.11;76.22;99015.33;105809;1280;25399;-77
2022/03/09 07:59:07;;;;;;;135.00;65.00;;;;;;;1.15;76.15;99006.91;106026;1280;22552;-77
2022/03/09 08:01:33;;;;;;;133.70;62.40;;;;;;;1.18;76.06;99003.88;105731;1280;138431;-77
2022/03/09 08:03:59;;;;;;;135.00;62.90;;;;;;;1.22;75.79;99007.64;105968;1280;24287;-77
2022/03/09 08:06:26;;;;;;;130.60;60.60;;;;;;;1.24;75.77;99008.05;105887;1280;138284;-77
2022/03/09 08:08:52;;;;;;;138.80;61.80;;;;;;;1.29;76.01;99005.36;105940;1280;22651;-77
2022/03/09 08:11:18;;;;;;;130.60;61.90;;;;;;;1.36;76.10;99004.77;105962;1280;24344;-77
2022/03/09 08:13:45;;;;;;;127.70;60.00;;;;;;;1.42;76.02;99001.73;105757;1280;138065;-77
2022/03/09 08:16:11;;;;;;;129.90;57.40;;;;;;;1.48;76.14;98999.50;105969;1280;22740;-77
2022/03/09 08:18:38;;;;;;;146.00;65.50;;;;;;;1.53;76.04;98998.01;105866;1280;138037;-77
2022/03/09 08:21:05;;;;;;;145.70;65.00;;;;;;;1.60;75.99;99001.54;106003;1280;22695;-77
2022/03/09 08:23:31;;;;;;;138.40;61.50;;;;;;;1.70;76.21;99003.98;105744;1280;23082;-75
2022/03/09 08:25:57;;;;;;;126.00;60.30;;;;;;;1.82;75.93;99006.13;105819;1280;136929;-78
2022/03/09 08:28:24;;;;;;;134.60;59.90;;;;;;;1.92;75.45;99008.41;105830;1280;25276;-77
2022/03/09 08:30:52;;;;;;;123.80;57.40;;;;;;;2.01;74.89;99001.38;105943;1280;137636;-77
2022/03/09 08:33:18;;;;;;;112.40;53.10;;;;;;;2.09;74.71;98988.64;106487;1280;25385;-76
2022/03/09 08:35:44;;;;;;;105.20;51.60;;;;;;;2.15;74.15;98986.69;105901;1280;22604;-78
2022/03/09 08:38:10;;;;;;;109.60;50.60;;;;;;;2.19;73.96;98982.42;105703;1280;138686;-77
2022/03/09 08:40:51;;;;;;;115.50;54.60;;;;;;;2.23;73.48;98977.51;105958;1280;22791;-76
2022/03/09 08:43:18;;;;;;;108.80;54.40;;;;;;;2.26;73.21;98971.55;105644;1280;139015;-76
2022/03/09 08:45:45;;;;;;;119.90;57.10;;;;;;;2.29;72.90;98966.07;105697;1283;23542;-76
2022/03/09 08:48:11;;;;;;;110.20;53.40;;;;;;;2.30;72.94;98960.71;106045;1280;138447;-76
2022/03/09 08:50:37;;;;;;;112.40;54.30;;;;;;;2.32;72.63;98960.48;105872;1280;22642;-76
2022/03/09 08:53:04;;;;;;;120.60;57.70;;;;;;;2.32;72.55;98958.59;105828;1280;24130;-76
2022/03/09 08:55:31;;;;;;;110.50;54.10;;;;;;;2.31;72.65;98949.86;105553;1280;138302;-76
2022/03/09 08:57:57;;;;;;;115.00;55.20;;;;;;;2.32;72.71;98952.11;105535;1280;22543;-77
2022/03/09 09:00:24;;;;;;;114.30;52.90;;;;;;;2.34;72.51;98946.98;105625;1280;138171;-76
2022/03/09 09:02:51;;;;;;;122.50;58.80;;;;;;;2.36;72.38;98946.60;105950;1280;22559;-76
2022/03/09 09:05:17;;;;;;;111.80;54.40;;;;;;;2.38;72.33;98952.48;105522;1280;23925;-76
2022/03/09 09:07:44;;;;;;;117.80;56.90;;;;;;;2.42;72.08;98952.91;105998;1280;138267;-76
2022/03/09 09:10:10;;;;;;;106.00;52.60;;;;;;;2.48;72.37;98958.80;105992;1280;26510;-78
2022/03/09 09:12:36;;;;;;;109.30;52.80;;;;;;;2.55;72.28;98960.98;105767;1280;140080;-76
2022/03/09 09:15:04;;;;;;;117.60;59.70;;;;;;;2.61;72.04;98962.45;105444;1280;627746;-77
2022/03/09 09:17:31;;;;;;;118.50;57.80;;;;;;;2.66;72.03;98957.36;105675;1280;25333;-76
2022/03/09 09:19:57;;;;;;;114.80;53.50;;;;;;;2.69;71.53;98950.63;105726;1280;137874;-78
2022/03/09 09:22:23;;;;;;;115.90;55.10;;;;;;;2.69;71.48;98952.20;105830;1280;24299;-78
2022/03/09 09:24:50;;;;;;;118.30;57.80;;;;;;;2.69;71.33;98944.84;105678;1280;138131;-78
2022/03/09 09:27:16;;;;;;;115.90;58.90;;;;;;;2.70;71.42;98939.55;105804;1280;24235;-78
2022/03/09 09:29:42;;;;;;;101.40;51.90;;;;;;;2.75;71.40;98942.58;105864;1280;22563;-76
2022/03/09 09:32:09;;;;;;;115.00;56.70;;;;;;;2.90;71.86;98940.47;105897;1279;138340;-76
2022/03/09 09:34:36;;;;;;;121.40;56.90;;;;;;;3.09;71.76;98940.10;105738;1280;24240;-76
2022/03/09 09:37:03;;;;;;;120.10;58.40;;;;;;;3.24;71.32;98940.08;106130;1280;137776;-77
2022/03/09 09:39:29;;;;;;;114.40;58.20;;;;;;;3.38;71.06;98937.81;105899;1280;22686;-77
2022/03/09 09:41:57;;;;;;;117.40;57.20;;;;;;;3.51;70.68;98933.30;105794;1280;138016;-77
2022/03/09 09:44:25;;;;;;;109.90;56.40;;;;;;;3.63;70.43;98936.80;106138;1280;25585;-76
2022/03/09 09:46:53;;;;;;;119.70;57.10;;;;;;;3.73;70.09;98934.11;105803;1280;22707;-76
2022/03/09 09:49:24;;;;;;;119.70;56.40;;;;;;;3.84;69.77;98933.73;105749;1280;137928;-75
2022/03/09 09:51:52;;;;;;;111.50;55.50;;;;;;;3.92;69.54;98932.97;105924;1280;24321;-76
2022/03/09 09:54:19;;;;;;;109.70;56.00;;;;;;;4.02;69.10;98931.45;106018;1280;138499;-76
2022/03/09 09:57:01;;;;;;;97.90;48.90;;;;;;;4.13;69.05;98931.14;105895;1280;23744;-76
2022/03/09 09:59:27;;;;;;;111.70;54.40;;;;;;;4.25;68.60;98929.82;106022;1280;23914;-76
2022/03/09 10:01:55;;;;;;;119.60;56.70;;;;;;;4.35;68.59;98933.77;105825;1279;138560;-76
2022/03/09 10:04:21;;;;;;;112.60;55.80;;;;;;;4.46;68.33;98935.73;105943;1280;25433;-76
2022/03/09 10:06:47;;;;;;;114.50;55.90;;;;;;;4.53;67.84;98931.02;106012;1280;137788;-76
2022/03/09 10:09:13;;;;;;;106.00;54.70;;;;;;;4.60;67.76;98929.60;105860;1280;25499;-75
2022/03/09 10:11:48;;;;;;;115.70;56.90;;;;;;;4.73;67.82;98928.13;105733;1281;25337;-75
2022/03/09 10:14:16;;;;;;;102.70;53.40;;;;;;;4.88;67.40;98923.83;105815;1280;137704;-75
2022/03/09 10:17:05;;;;;;;103.00;50.90;;;;;;;5.01;67.25;98922.51;106104;1280;23920;-76
2022/03/09 10:19:32;;;;;;;;;;;;;;;5.15;66.43;98922.21;105791;1280;137719;-75
2022/03/09 10:22:07;;;;;;;109.40;51.90;;;;;;;5.27;66.43;98923.33;106123;1280;22614;-75
2022/03/09 10:24:34;;;;;;;74.40;41.20;;;;;;;5.41;66.28;98921.59;105764;1280;137929;-76
2022/03/09 10:27:01;;;;;;;90.00;43.50;;;;;;;5.53;65.80;98918.05;106106;1280;25506;-76
2022/03/09 10:29:30;;;;;;;99.00;47.10;;;;;;;5.64;65.38;98918.77;105786;1280;22574;-76
2022/03/09 10:31:59;;;;;;;50.40;27.60;;;;;;;5.71;64.73;98916.55;106142;1280;138111;-76
2022/03/09 10:34:27;;;;;;;30.60;13.70;;;;;;;5.74;62.31;98910.65;105986;1280;22705;-75
2022/03/09 10:36:58;;;;;;;34.00;17.30;;;;;;;5.74;60.96;98908.45;105812;1280;137560;-75
2022/03/09 10:39:30;;;;;;;29.20;16.10;;;;;;;5.74;61.38;98904.71;106126;1280;22571;-76
2022/03/09 10:42:01;;;;;;;24.20;12.90;;;;;;;5.78;61.28;98903.23;105809;1280;137714;-75
2022/03/09 10:44:47;;;;;;;34.40;14.60;;;;;;;5.83;60.48;98904.99;105827;1280;22567;-75
2022/03/09 10:47:39;;;;;;;28.80;14.90;;;;;;;5.88;60.20;98905.21;106005;1280;22560;-76
2022/03/09 10:50:24;;;;;;;28.20;14.10;;;;;;;6.03;60.42;98900.09;105706;1280;137644;-75
2022/03/09 10:52:58;;;;;;;32.80;15.70;;;;;;;6.24;60.31;98904.38;106033;1280;22734;-75
2022/03/09 10:55:35;;;;;;;25.60;13.40;;;;;;;6.46;60.02;98905.59;105908;1280;137656;-75
2022/03/09 10:58:16;;;;;;;24.10;12.00;;;;;;;6.66;58.86;98906.59;106015;1280;22637;-75
2022/03/09 11:00:54;;;;;;;24.90;13.00;;;;;;;6.78;57.70;98900.27;105692;1280;137790;-75
2022/03/09 11:03:24;;;;;;;24.10;12.40;;;;;;;6.89;57.84;98896.14;106135;1279;24450;-75
2022/03/09 11:05:59;;;;;;;24.50;12.10;;;;;;;6.91;57.12;98895.52;105948;1280;22579;-76
2022/03/09 11:08:28;;;;;;;29.40;12.80;;;;;;;6.89;56.81;98896.46;105928;1280;137938;-76
2022/03/09 11:10:58;;;;;;;23.10;11.80;;;;;;;6.86;57.10;98894.05;105890;1280;23825;-76
2022/03/09 11:13:26;;;;;;;21.30;11.50;;;;;;;6.88;57.41;98896.05;105832;1280;140404;-76
2022/03/09 11:15:54;;;;;;;21.00;10.70;;;;;;;6.88;56.13;98905.58;106673;1280;22423;-76